ETHS 200020Z AUTO 27010KT 6000 // ////// 16/15 Q1019 /// ETHS 192320Z AUTO 27007KT 6000 // ////// 16/16 Q1019 /// ETHS 192220Z AUTO 27007KT 7000 // ////// 16/15 Q1018 /// ETHS 192120Z AUTO 25005KT 7000 // ////// 16/16 Q1018 /// ETHS 192020Z AUTO 22006KT 6000 // ////// 17/16 Q1018 /// ETHS 191920Z AUTO 22004KT 6000 // ////// 17/16 Q1017 /// ETHS 191820Z AUTO 16005KT 7000 // ////// 17/16 Q1016 /// ETHS 191720Z AUTO 30008KT 4500 // ////// 17/16 Q1018 /// ETHS 191625Z 27012KT 8000 -RA BKN060 BKN090 18/16 Q1018 RERA BLU ETHS 191620Z 26015G26KT 5000 RA BKN060 BKN090 18/16 Q1018 RETS WHT ETHS 191605Z 23013G34KT 3000 +TSRA SCT050CB SCT100 BKN200 24/12 Q1018 YLO ETHS 191540Z 22009KT 9999 -TSRA SCT050CB SCT100 BKN200 28/09 Q1015 BLU+ ETHS 191530Z 21011KT 9999 VCTS SCT050CB SCT100 BKN200 28/09 Q1015 BLU+ ETHS 191520Z 21010KT 9999 FEW060 SCT100 BKN200 28/09 Q1015 BLU+ ETHS 191500Z 21011KT 9999 SCT120 BKN200 28/09 Q1015 BLU+FCST CNL ETHS 191420Z 16008KT 9999 FEW140 SCT190 BKN280 28/10 Q1015 BLU+BLU+ ETHS 191320Z 17009KT 9999 FEW140 SCT220 29/10 Q1016 BLU+BLU+ ETHS 191220Z 18008KT 9999 FEW140 BKN220 28/10 Q1017 BLU+BLU+ ETHS 191120Z 20011KT 9999 BKN220 27/11 Q1017 BLU+BLU+ ETHS 191020Z 21008KT 9999 BKN220 27/10 Q1018 BLU+BLU+ ETHS 190920Z 21009KT 9999 BKN220 26/11 Q1019 BLU+BLU+ ETHS 190820Z 22009KT 9999 BKN240 25/11 Q1019 BLU+BLU+ ETHS 190720Z 22012KT 9999 BKN270 24/12 Q1019 BLU+BLU+ ETHS 190620Z 19006KT 9999 BKN300 22/13 Q1019 BLU+BLU+ ETHS 190520Z 19005KT 9999 BKN260 19/13 Q1019 BLU+BLU+ ETHS 190420Z 18004KT 9999 BKN250 18/13 Q1019 BLU+BLU+ ETHS 190320Z 18004KT 9999 BKN240 18/13 Q1019 BLU+ ETHS 190220Z 19004KT 9999 BKN260 18/13 Q1019 BLU+ ETHS 190120Z 18006KT 9999 BKN280 19/13 Q1019 BLU+ ETHS 190020Z 18006KT 9999 BKN280 19/13 Q1020 BLU+ ETHS 182320Z 18005KT 9999 BKN260 19/13 Q1020 BLU+ ETHS 182220Z 17006KT 9999 BKN260 20/13 Q1020 BLU+ ETHS 182120Z 16007KT 9999 BKN260 21/13 Q1020 BLU+ ETHS 182020Z 16007KT 9999 SCT060 BKN300 22/13 Q1020 BLU+ ETHS 181920Z 16006KT 9999 SCT060 BKN250 23/14 Q1020 BLU+ ETHS 181820Z 15006KT 9999 FEW050 SCT250 24/14 Q1020 BLU+ ETHS 181720Z 15006KT 9999 FEW050 SCT300 25/14 Q1020 BLU+ ETHS 181620Z 16008KT 9999 FEW052 BKN350 26/13 Q1020 BLU+ ETHS 181520Z 16009KT 9999 FEW060TCU BKN350 28/13 Q1020 BLU+FCST CNL ETHS 181420Z 22007KT 9999 FEW060 BKN350 28/11 Q1021 BLU+BLU+ ETHS 181320Z 18009KT 9999 FEW055 BKN300 27/12 Q1021 BLU+BLU+

METAR Messwerte "FASSBERG (GER-AF" ETHS

Zurück zur Übersicht

Ortsname
Ländercode / m ü. NN
Zeit Temperatur Taupunkt Rel.
Luftfeuchte
Luftdruck:
Altimeter
NN
Station
Wind in Beaufort
(Knoten)
Sichtweite
(Meter)
Wolken
(Meter über Grund)
Wettererscheinung
FASSBERG (GER-AF
DE 71
Fr 20.05. 02:20161594 %1019
1019
1010
W 3 (10)6000  
FASSBERG (GER-AF
DE 71
Fr 20.05. 01:201616100 %1019
1019
1010
W 3 (7)6000  
FASSBERG (GER-AF
DE 71
Fr 20.05. 00:20161594 %1018
1018
1009
W 3 (7)7000  
FASSBERG (GER-AF
DE 71
Do 19.05. 23:201616100 %1018
1018
1009
WSW 2 (5)7000  
FASSBERG (GER-AF
DE 71
Do 19.05. 22:20171694 %1018
1018
1009
SW 2 (6)6000  
FASSBERG (GER-AF
DE 71
Do 19.05. 21:20171694 %1017
1017
1008
SW 2 (4)6000  
FASSBERG (GER-AF
DE 71
Do 19.05. 20:20171694 %1016
1016
1007
SSO 2 (5)7000  
FASSBERG (GER-AF
DE 71
Do 19.05. 19:20171694 %1018
1018
1009
WNW 3 (8)4500  
FASSBERG (GER-AF
DE 71
Do 19.05. 18:25181688 %1018
1018
1009
W 4 (12)8000Stark bewölkt (2700)
Stark bewölkt (1800)
Regen (schwach)
FASSBERG (GER-AF
DE 71
Do 19.05. 18:20181688 %1018
1018
1009
W 4 (15) - 6 (26)5000Stark bewölkt (2700)
Stark bewölkt (1800)
Regen
FASSBERG (GER-AF
DE 71
Do 19.05. 18:05241247 %1018
1018
1009
SW 4 (13) - 8 (34)3000Stark bewölkt (6100)
Wolkig (3000)
Wolkig Cb (1500)
Gewitter mit Regen (stark)
FASSBERG (GER-AF
DE 71
Do 19.05. 17:4028930 %1015
1015
1006
SW 3 (9)>= 10000Stark bewölkt (6100)
Wolkig (3000)
Wolkig Cb (1500)
Gewitter mit Regen (schwach)
FASSBERG (GER-AF
DE 71
Do 19.05. 17:3028930 %1015
1015
1006
SSW 4 (11)>= 10000Stark bewölkt (6100)
Wolkig (3000)
Wolkig Cb (1500)
 
FASSBERG (GER-AF
DE 71
Do 19.05. 17:2028930 %1015
1015
1006
SSW 3 (10)>= 10000Stark bewölkt (6100)
Wolkig (3000)
Leicht bewölkt (1800)
 
FASSBERG (GER-AF
DE 71
Do 19.05. 17:0028930 %1015
1015
1006
SSW 4 (11)>= 10000Stark bewölkt (6100)
Wolkig (3700)
 
FASSBERG (GER-AF
DE 71
Do 19.05. 16:20281032 %1015
1015
1006
SSO 3 (8)>= 10000Stark bewölkt (8500)
Wolkig (5800)
Leicht bewölkt (4300)
 
FASSBERG (GER-AF
DE 71
Do 19.05. 15:20291031 %1016
1016
1007
S 3 (9)>= 10000Wolkig (6700)
Leicht bewölkt (4300)
 
FASSBERG (GER-AF
DE 71
Do 19.05. 14:20281032 %1017
1017
1008
S 3 (8)>= 10000Stark bewölkt (6700)
Leicht bewölkt (4300)
 
FASSBERG (GER-AF
DE 71
Do 19.05. 13:20271137 %1017
1017
1008
SSW 4 (11)>= 10000Stark bewölkt (6700) 
FASSBERG (GER-AF
DE 71
Do 19.05. 12:20271034 %1018
1018
1009
SSW 3 (8)>= 10000Stark bewölkt (6700) 
FASSBERG (GER-AF
DE 71
Do 19.05. 11:20261139 %1019
1019
1010
SSW 3 (9)>= 10000Stark bewölkt (6700) 
FASSBERG (GER-AF
DE 71
Do 19.05. 10:20251141 %1019
1019
1010
SW 3 (9)>= 10000Stark bewölkt (7300) 
FASSBERG (GER-AF
DE 71
Do 19.05. 09:20241247 %1019
1019
1010
SW 4 (12)>= 10000Stark bewölkt (8200) 
FASSBERG (GER-AF
DE 71
Do 19.05. 08:20221357 %1019
1019
1010
S 2 (6)>= 10000Stark bewölkt (9100) 
FASSBERG (GER-AF
DE 71
Do 19.05. 07:20191368 %1019
1019
1010
S 2 (5)>= 10000Stark bewölkt (7900) 
FASSBERG (GER-AF
DE 71
Do 19.05. 06:20181373 %1019
1019
1010
S 2 (4)>= 10000Stark bewölkt (7600) 
FASSBERG (GER-AF
DE 71
Do 19.05. 05:20181373 %1019
1019
1010
S 2 (4)>= 10000Stark bewölkt (7300) 
FASSBERG (GER-AF
DE 71
Do 19.05. 04:20181373 %1019
1019
1010
S 2 (4)>= 10000Stark bewölkt (7900) 
FASSBERG (GER-AF
DE 71
Do 19.05. 03:20191368 %1019
1019
1010
S 2 (6)>= 10000Stark bewölkt (8500) 
FASSBERG (GER-AF
DE 71
Do 19.05. 02:20191368 %1020
1020
1011
S 2 (6)>= 10000Stark bewölkt (8500) 
FASSBERG (GER-AF
DE 71
Do 19.05. 01:20191368 %1020
1020
1011
S 2 (5)>= 10000Stark bewölkt (7900) 
FASSBERG (GER-AF
DE 71
Do 19.05. 00:20201364 %1020
1020
1011
S 2 (6)>= 10000Stark bewölkt (7900) 
FASSBERG (GER-AF
DE 71
Mi 18.05. 23:20211360 %1020
1020
1011
SSO 3 (7)>= 10000Stark bewölkt (7900) 
FASSBERG (GER-AF
DE 71
Mi 18.05. 22:20221357 %1020
1020
1011
SSO 3 (7)>= 10000Stark bewölkt (9100)
Wolkig (1800)
 
FASSBERG (GER-AF
DE 71
Mi 18.05. 21:20231457 %1020
1020
1011
SSO 2 (6)>= 10000Stark bewölkt (7600)
Wolkig (1800)
 
FASSBERG (GER-AF
DE 71
Mi 18.05. 20:20241454 %1020
1020
1011
SSO 2 (6)>= 10000Wolkig (7600)
Leicht bewölkt (1500)
 
FASSBERG (GER-AF
DE 71
Mi 18.05. 19:20251450 %1020
1020
1011
SSO 2 (6)>= 10000Wolkig (9100)
Leicht bewölkt (1500)
 
FASSBERG (GER-AF
DE 71
Mi 18.05. 18:20261345 %1020
1020
1011
SSO 3 (8)>= 10000Stark bewölkt (11000)
Leicht bewölkt (1600)
 
FASSBERG (GER-AF
DE 71
Mi 18.05. 17:20281340 %1020
1020
1011
SSO 3 (9)>= 10000Stark bewölkt (11000)
Leicht bewölkt (1800)
 
FASSBERG (GER-AF
DE 71
Mi 18.05. 16:20281135 %1021
1021
1012
SW 3 (7)>= 10000Stark bewölkt (11000)
Leicht bewölkt (1800)
 
FASSBERG (GER-AF
DE 71
Mi 18.05. 15:20271239 %1021
1021
1012
S 3 (9)>= 10000Stark bewölkt (9100)
Leicht bewölkt (1700)
 

Altimeter: Einstellung am Altimeter (Höhenmesser), die Höhe 0 muss auf diesen Luftdruckwert zeigen, damit das Gerät die Stationshöhe richtig anzeigt.

NN: Luftdruck reduziert auf "Normal Null", auf Meereshöhe, dieser von der Temperatur abhängige Wert wird bisweilen unkorrekt einfach als "Luftdruck" bezeichnet. Eigentlich nur eine fiktive Größe, die es erlaubt, Stationen auf unterschiedlichen Höhen miteinander zu vergleichen.

Station: Realer Luftdruck an der Station.